createdAt,value
2018-10-16T00:01:17.550Z,97864.50
2018-10-16T00:03:48.299Z,97865.39
2018-10-16T00:06:19.060Z,97867.42
2018-10-16T00:08:50.005Z,97859.95
2018-10-16T00:11:20.572Z,97859.95
2018-10-16T00:13:51.310Z,97868.41
2018-10-16T00:16:22.103Z,97864.34
2018-10-16T00:18:52.891Z,97859.83
2018-10-16T00:21:23.623Z,97859.83
2018-10-16T00:23:54.349Z,97863.64
2018-10-16T00:26:25.058Z,97857.95
2018-10-16T00:28:55.851Z,97850.52
2018-10-16T00:31:26.504Z,97850.52
2018-10-16T00:33:57.288Z,97861.97
2018-10-16T00:36:28.065Z,97862.99
2018-10-16T00:38:58.915Z,97857.62
2018-10-16T00:47:05.322Z,97850.39
2018-10-16T00:49:54.909Z,97857.77
2018-10-16T00:52:25.998Z,97862.86
2018-10-16T00:54:56.833Z,97858.41
2018-10-16T00:57:27.467Z,97855.52
2018-10-16T00:59:58.299Z,97855.41
2018-10-16T01:02:29.117Z,97869.02
2018-10-16T01:04:59.946Z,97852.75
2018-10-16T01:07:30.796Z,97852.75
2018-10-16T01:10:01.531Z,97864.48
2018-10-16T01:12:32.338Z,97855.05
2018-10-16T01:15:03.111Z,97863.44
2018-10-16T01:17:33.955Z,97861.29
2018-10-16T01:20:03.407Z,97861.29
2018-10-16T01:22:34.109Z,97868.05
2018-10-16T01:25:04.938Z,97863.33
2018-10-16T01:27:35.845Z,97863.33
2018-10-16T01:30:06.542Z,97864.88
2018-10-16T01:32:37.890Z,97860.45
2018-10-16T01:35:10.074Z,97855.91
2018-10-16T01:37:40.903Z,97854.64
2018-10-16T01:40:13.551Z,97854.64
2018-10-16T01:42:44.311Z,97852.61
2018-10-16T01:45:15.080Z,97852.98
2018-10-16T01:47:45.960Z,97848.55
2018-10-16T01:50:15.417Z,97848.55
2018-10-16T01:52:46.067Z,97843.06
2018-10-16T01:55:16.915Z,97852.73
2018-10-16T01:57:47.817Z,97852.73
2018-10-16T02:00:18.529Z,97852.98
2018-10-16T02:02:49.136Z,97844.86
2018-10-16T02:05:19.922Z,97851.61
2018-10-16T02:07:50.570Z,97850.23
2018-10-16T02:10:21.343Z,97846.41
2018-10-16T02:12:52.076Z,97853.03
2018-10-16T02:15:22.866Z,97856.46
2018-10-16T02:17:53.588Z,97856.46
2018-10-16T02:20:24.341Z,97854.05
2018-10-16T02:22:55.157Z,97853.27
2018-10-16T02:25:25.913Z,97847.05
2018-10-16T02:27:56.570Z,97840.97
2018-10-16T02:30:27.341Z,97843.49
2018-10-16T02:32:58.138Z,97841.72
2018-10-16T02:35:28.906Z,97834.86
2018-10-16T02:37:59.598Z,97834.86
2018-10-16T02:40:30.327Z,97847.80
2018-10-16T02:43:01.075Z,97849.70
2018-10-16T02:45:31.914Z,97840.43
2018-10-16T02:48:02.783Z,97840.43
2018-10-16T02:50:33.474Z,97845.25
2018-10-16T02:53:04.332Z,97839.52
2018-10-16T02:55:35.052Z,97847.52
2018-10-16T02:58:05.896Z,97848.27
2018-10-16T03:00:36.594Z,97848.27
2018-10-16T03:03:07.388Z,97854.37
2018-10-16T03:05:38.114Z,97859.69
2018-10-16T03:08:09.086Z,97856.41
2018-10-16T03:10:39.898Z,97853.34
2018-10-16T03:13:10.862Z,97853.34
2018-10-16T03:15:41.611Z,97859.80
2018-10-16T03:18:12.318Z,97860.56
2018-10-16T03:20:43.245Z,97864.78
2018-10-16T03:23:13.895Z,97864.63
2018-10-16T03:25:44.807Z,97864.63
2018-10-16T03:41:19.313Z,97862.74
2018-10-16T03:44:02.306Z,97866.81
2018-10-16T03:46:33.122Z,97864.53
2018-10-16T03:49:03.898Z,97867.41
2018-10-16T03:51:34.848Z,97867.41
2018-10-16T03:54:05.559Z,97868.81
2018-10-16T03:56:36.299Z,97862.06
2018-10-16T03:59:07.337Z,97867.52
2018-10-16T04:01:38.037Z,97872.22
2018-10-16T04:04:08.902Z,97864.33
2018-10-16T04:06:39.618Z,97864.33
2018-10-16T04:09:10.364Z,97871.81
2018-10-16T04:11:41.066Z,97870.70
2018-10-16T04:14:11.905Z,97862.19
2018-10-16T04:16:42.841Z,97862.19
2018-10-16T04:19:13.557Z,97865.64
2018-10-16T04:21:47.986Z,97867.66
2018-10-16T04:24:18.783Z,97872.98
2018-10-16T04:26:49.545Z,97868.69
2018-10-16T04:29:20.356Z,97877.09
2018-10-16T04:31:51.069Z,97879.48
2018-10-16T04:34:21.925Z,97871.70
2018-10-16T04:36:51.390Z,97871.70
2018-10-16T04:39:22.069Z,97878.70
2018-10-16T04:41:52.897Z,97878.98
2018-10-16T04:44:23.779Z,97878.98
2018-10-16T04:46:54.480Z,97878.23
2018-10-16T04:49:25.310Z,97876.84
2018-10-16T04:51:56.061Z,97882.42
2018-10-16T04:54:26.912Z,97883.33
2018-10-16T04:56:57.838Z,97883.33
2018-10-16T04:59:28.548Z,97878.62
2018-10-16T05:01:59.242Z,97880.80
2018-10-16T05:04:30.065Z,97878.25
2018-10-16T05:07:00.951Z,97885.13
2018-10-16T05:09:30.392Z,97885.13
2018-10-16T05:12:01.117Z,97890.45
2018-10-16T05:15:02.422Z,97881.44
2018-10-16T05:17:21.519Z,97881.44
2018-10-16T05:20:11.100Z,97887.53
2018-10-16T05:23:01.527Z,97884.11
2018-10-16T05:25:32.556Z,97884.11
2018-10-16T05:28:22.153Z,97892.28
2018-10-16T05:30:52.959Z,97894.79
2018-10-16T05:33:41.048Z,97895.31
2018-10-16T05:52:36.572Z,97914.98
2018-10-16T05:55:18.485Z,97915.90
2018-10-16T05:57:49.484Z,97914.74
2018-10-16T06:00:57.850Z,97917.81
2018-10-16T06:03:47.436Z,97921.38
2018-10-16T06:08:54.941Z,97927.45
2018-10-16T06:11:43.064Z,97923.26
2018-10-16T06:14:46.718Z,97910.04
2018-10-16T06:17:22.109Z,97910.04
2018-10-16T06:22:44.606Z,97935.43
2018-10-16T06:25:34.444Z,97936.20
2018-10-16T06:31:33.142Z,97944.97
2018-10-16T06:34:03.963Z,97944.70
2018-10-16T06:36:33.466Z,97950.79
2018-10-16T06:39:23.060Z,97954.23
2018-10-16T06:42:12.572Z,97963.66
2018-10-16T06:44:43.475Z,97963.66
2018-10-16T06:47:33.043Z,97965.30
2018-10-16T06:50:22.589Z,97961.58
2018-10-16T07:02:46.563Z,97964.47
2018-10-16T07:12:01.576Z,97968.92
2018-10-16T07:14:32.369Z,97974.77
2018-10-16T07:17:22.068Z,97973.73
2018-10-16T07:20:11.903Z,97966.56
2018-10-16T07:22:42.856Z,97966.56
2018-10-16T07:25:13.582Z,97979.03
2018-10-16T07:28:03.353Z,97984.26
2018-10-16T07:30:34.375Z,97977.61
2018-10-16T07:33:05.094Z,97981.66
2018-10-16T07:35:54.591Z,97969.44
2018-10-16T07:52:14.567Z,97967.08
2018-10-16T07:54:56.839Z,97975.02
2018-10-16T08:12:52.538Z,97977.44
2018-10-16T08:15:42.079Z,97969.05
2018-10-16T08:18:31.621Z,97969.78
2018-10-16T08:21:21.262Z,97973.97
2018-10-16T08:24:11.031Z,97973.97
2018-10-16T08:27:00.849Z,97965.70
2018-10-16T08:29:31.582Z,97965.70
2018-10-16T08:42:18.116Z,97958.78
2018-10-16T08:45:00.066Z,97965.28
2018-10-16T08:47:42.186Z,97964.91
2018-10-16T08:50:24.008Z,97956.09
2018-10-16T08:52:54.927Z,97956.09
2018-10-16T08:55:24.448Z,97967.31
2018-10-16T08:57:55.395Z,97966.35
2018-10-16T09:00:26.122Z,97959.98
2018-10-16T09:03:16.008Z,97961.05
2018-10-16T09:06:05.532Z,97968.93
2018-10-16T09:08:55.055Z,97969.98
2018-10-16T09:11:45.996Z,97976.74
2018-10-16T09:14:17.535Z,97971.76
2018-10-16T09:17:07.114Z,97975.56
2018-10-16T09:19:56.929Z,97970.39
2018-10-16T09:22:44.989Z,97975.50
2018-10-16T09:25:34.529Z,97967.14
2018-10-16T09:28:24.130Z,97982.27
2018-10-16T09:31:13.609Z,97984.69
2018-10-16T09:41:26.989Z,97992.16
2018-10-16T09:44:08.487Z,97996.73
2018-10-16T09:46:50.587Z,98003.16
2018-10-16T09:49:33.191Z,97999.21
2018-10-16T09:52:15.330Z,98001.08
2018-10-16T09:54:46.106Z,98001.08
2018-10-16T09:57:35.605Z,97995.53
2018-10-16T10:11:26.048Z,97984.98
2018-10-16T10:13:56.938Z,97987.33
2018-10-16T10:16:26.459Z,97987.33
2018-10-16T10:19:16.051Z,97985.05
2018-10-16T10:22:05.923Z,97990.82
2018-10-16T10:24:54.008Z,97985.39
2018-10-16T10:27:24.921Z,97990.08
2018-10-16T10:29:54.404Z,97988.37
2018-10-16T10:32:44.036Z,97995.28
2018-10-16T10:35:34.027Z,97988.81
2018-10-16T10:38:23.569Z,97992.05
2018-10-16T10:51:27.944Z,97982.88
2018-10-16T10:54:17.487Z,97985.27
2018-10-16T10:57:08.081Z,97985.27
2018-10-16T10:59:55.959Z,97983.41
2018-10-16T11:02:47.119Z,97981.16
2018-10-16T11:05:15.266Z,97983.15
2018-10-16T11:07:46.556Z,97979.27
2018-10-16T11:10:17.557Z,97972.72
2018-10-16T11:12:48.948Z,97967.76
2018-10-16T11:15:18.452Z,97975.42
2018-10-16T11:17:51.584Z,97974.80
2018-10-16T11:20:22.940Z,97974.91
2018-10-16T11:22:52.488Z,97975.44
2018-10-16T11:25:24.604Z,97971.36
2018-10-16T11:27:55.889Z,97981.16
2018-10-16T11:30:25.475Z,97977.45
2018-10-16T11:32:57.600Z,97982.31
2018-10-16T11:35:28.601Z,97973.20
2018-10-16T11:37:59.891Z,97976.61
2018-10-16T11:40:29.450Z,97981.11
2018-10-16T11:43:00.604Z,97973.81
2018-10-16T11:45:31.844Z,97982.59
2018-10-16T11:48:01.437Z,97982.88
2018-10-16T11:50:32.573Z,97981.16
2018-10-16T11:53:03.542Z,97983.93
2018-10-16T11:55:34.838Z,97986.08
2018-10-16T11:58:05.852Z,97985.89
2018-10-16T12:00:35.455Z,97980.67
2018-10-16T12:03:06.575Z,97987.84
2018-10-16T12:05:37.837Z,97985.01
2018-10-16T12:08:07.479Z,97979.87
2018-10-16T12:10:38.579Z,97979.87
2018-10-16T12:13:09.667Z,97984.11
2018-10-16T12:15:40.793Z,97980.73
2018-10-16T12:18:23.990Z,97977.41
2018-10-16T12:21:19.510Z,97977.41
2018-10-16T12:23:50.993Z,97979.91
2018-10-16T12:26:21.309Z,97980.84
2018-10-16T12:28:52.590Z,97971.64
2018-10-16T12:31:23.609Z,97979.23
2018-10-16T12:33:54.946Z,97985.61
2018-10-16T12:36:24.409Z,97974.16
2018-10-16T12:38:55.655Z,97971.91
2018-10-16T12:41:26.945Z,97972.83
2018-10-16T12:43:56.468Z,97983.76
2018-10-16T12:46:29.562Z,97982.67
2018-10-16T12:49:00.909Z,97982.41
2018-10-16T12:51:30.453Z,97975.88
2018-10-16T12:54:01.589Z,97978.75
2018-10-16T12:56:32.582Z,97977.53
2018-10-16T12:59:03.831Z,97975.66
2018-10-16T13:01:34.914Z,97971.68
2018-10-16T13:04:04.448Z,97971.68
2018-10-16T13:06:35.565Z,97975.34
2018-10-16T13:09:07.516Z,97975.72
2018-10-16T13:11:38.528Z,97975.55
2018-10-16T13:14:09.677Z,97976.26
2018-10-16T13:16:40.989Z,97977.18
2018-10-16T13:19:11.882Z,97968.06
2018-10-16T13:21:41.472Z,97973.48
2018-10-16T13:24:12.406Z,97979.23
2018-10-16T13:26:43.098Z,97984.13
2018-10-16T13:29:14.478Z,97984.67
2018-10-16T13:31:45.123Z,97979.66
2018-10-16T13:34:16.407Z,97985.45
2018-10-16T13:36:47.364Z,97983.53
2018-10-16T13:39:18.126Z,97984.52
2018-10-16T13:41:49.521Z,97985.42
2018-10-16T13:44:20.481Z,97986.17
2018-10-16T13:46:51.287Z,97990.32
2018-10-16T13:49:22.371Z,97990.83
2018-10-16T13:51:53.317Z,98001.66
2018-10-16T13:54:24.130Z,98004.30
2018-10-16T13:56:54.976Z,98009.07
2018-10-16T13:59:24.500Z,98009.07
2018-10-16T14:01:55.516Z,98016.44
2018-10-16T14:04:26.457Z,98017.11
2018-10-16T14:06:57.497Z,98023.83
2018-10-16T14:09:28.457Z,98022.41
2018-10-16T14:11:59.275Z,98022.38
2018-10-16T14:14:30.419Z,98014.71
2018-10-16T14:17:01.149Z,98022.25
2018-10-16T14:19:31.962Z,98026.58
2018-10-16T14:22:01.517Z,98023.64
2018-10-16T14:24:32.475Z,98027.57
2018-10-16T14:27:03.307Z,98023.88
2018-10-16T14:29:34.393Z,98023.66
2018-10-16T14:32:05.354Z,98022.98
2018-10-16T14:34:36.514Z,98031.69
2018-10-16T14:37:07.110Z,98027.69
2018-10-16T14:39:38.051Z,98028.74
2018-10-16T14:42:08.939Z,98036.13
2018-10-16T14:44:38.448Z,98036.13
2018-10-16T14:47:09.324Z,98035.19
2018-10-16T14:49:40.058Z,98041.24
2018-10-16T14:52:11.035Z,98039.74
2018-10-16T14:54:40.443Z,98039.74
2018-10-16T14:57:11.362Z,98037.80
2018-10-16T14:59:42.336Z,98037.23
2018-10-16T15:02:13.348Z,98042.34
2018-10-16T15:04:44.289Z,98039.44
2018-10-16T15:07:15.146Z,98035.96
2018-10-16T15:09:45.971Z,98040.94
2018-10-16T15:12:15.456Z,98040.94
2018-10-16T15:14:46.135Z,98052.61
2018-10-16T15:17:17.121Z,98050.96
2018-10-16T15:19:48.057Z,98047.31
2018-10-16T15:22:19.047Z,98052.98
2018-10-16T15:24:49.956Z,98051.55
2018-10-16T15:27:19.513Z,98051.55
2018-10-16T15:29:50.585Z,98052.42
2018-10-16T15:32:21.358Z,98046.64
2018-10-16T15:34:52.050Z,98048.86
2018-10-16T15:37:22.968Z,98050.55
2018-10-16T15:39:52.407Z,98050.55
2018-10-16T15:42:23.058Z,98051.20
2018-10-16T15:44:53.951Z,98047.50
2018-10-16T15:47:23.400Z,98047.50
2018-10-16T15:49:54.189Z,98054.22
2018-10-16T15:52:24.981Z,98067.03
2018-10-16T15:54:55.886Z,98067.03
2018-10-16T15:57:26.806Z,98062.37
2018-10-16T15:59:57.572Z,98064.55
2018-10-16T16:02:28.371Z,98065.78
2018-10-16T16:04:59.048Z,98064.04
2018-10-16T16:07:29.978Z,98066.95
2018-10-16T16:10:00.919Z,98061.55
2018-10-16T16:12:31.948Z,98061.55
2018-10-16T16:15:02.878Z,98072.56
2018-10-16T16:17:33.769Z,98072.95
2018-10-16T16:20:04.556Z,98080.81
2018-10-16T16:22:35.397Z,98078.18
2018-10-16T16:25:06.548Z,98083.67
2018-10-16T16:27:37.539Z,98084.38
2018-10-16T16:30:09.443Z,98084.81
2018-10-16T16:32:40.352Z,98088.94
2018-10-16T16:35:11.147Z,98095.52
2018-10-16T16:37:41.919Z,98092.45
2018-10-16T16:40:12.333Z,98092.45
2018-10-16T16:42:42.980Z,98089.05
2018-10-16T16:45:13.989Z,98093.18
2018-10-16T16:47:44.857Z,98098.43
2018-10-16T16:50:15.575Z,98103.95
2018-10-16T16:52:46.315Z,98099.02
2018-10-16T16:55:17.581Z,98102.92
2018-10-16T16:57:48.377Z,98114.71
2018-10-16T17:00:19.069Z,98099.48
2018-10-16T17:02:49.922Z,98099.03
2018-10-16T17:05:20.862Z,98099.03
2018-10-16T17:07:51.966Z,98107.44
2018-10-16T17:10:22.869Z,98111.41
2018-10-16T17:12:53.527Z,98108.00
2018-10-16T17:15:24.323Z,98114.80
2018-10-16T17:18:13.989Z,98114.28
2018-10-16T17:21:03.518Z,98116.95
2018-10-16T17:34:07.928Z,98117.52
2018-10-16T17:36:38.800Z,98119.56
2018-10-16T17:39:11.503Z,98123.41
2018-10-16T17:41:42.580Z,98122.91
2018-10-16T17:44:13.362Z,98129.92
2018-10-16T17:46:44.081Z,98125.20
2018-10-16T17:49:14.940Z,98124.84
2018-10-16T17:51:44.397Z,98124.84
2018-10-16T17:54:15.296Z,98123.58
2018-10-16T17:56:46.086Z,98124.70
2018-10-16T17:59:16.952Z,98134.11
2018-10-16T18:02:05.054Z,98134.11
2018-10-16T18:04:54.598Z,98129.02
2018-10-16T18:07:44.986Z,98129.02
2018-10-16T18:10:15.863Z,98128.98
2018-10-16T18:12:46.948Z,98132.67
2018-10-16T18:15:16.742Z,98134.47
2018-10-16T18:21:37.949Z,98137.50
2018-10-16T18:27:20.880Z,98136.45
2018-10-16T18:29:51.618Z,98143.71
2018-10-16T18:32:22.329Z,98144.11
2018-10-16T18:34:53.089Z,98140.14
2018-10-16T18:37:23.904Z,98147.62
2018-10-16T18:39:54.582Z,98147.62
2018-10-16T18:42:25.528Z,98139.23
2018-10-16T18:44:56.364Z,98136.19
2018-10-16T18:47:27.054Z,98132.99
2018-10-16T18:49:57.937Z,98134.77
2018-10-16T18:52:27.381Z,98134.77
2018-10-16T18:54:58.135Z,98138.42
2018-10-16T18:57:29.116Z,98144.41
2018-10-16T18:59:59.900Z,98146.91
2018-10-16T19:02:30.789Z,98146.91
2018-10-16T19:05:01.761Z,98142.97
2018-10-16T19:07:32.475Z,98146.48
2018-10-16T19:10:03.440Z,98152.07
2018-10-16T19:12:34.264Z,98142.54
2018-10-16T19:15:05.113Z,98149.52
2018-10-16T19:17:36.038Z,98139.84
2018-10-16T19:20:07.558Z,98144.80
2018-10-16T19:22:38.381Z,98144.80
2018-10-16T19:25:10.333Z,98141.59
2018-10-16T19:27:41.140Z,98141.98
2018-10-16T19:30:12.957Z,98137.81
2018-10-16T19:32:42.432Z,98137.81
2018-10-16T19:35:14.428Z,98149.56
2018-10-16T19:37:45.169Z,98150.66
2018-10-16T19:40:15.902Z,98139.45
2018-10-16T19:42:46.991Z,98139.45
2018-10-16T19:45:17.950Z,98145.70
2018-10-16T19:47:48.557Z,98147.34
2018-10-16T19:50:19.367Z,98145.56
2018-10-16T19:52:50.052Z,98143.41
2018-10-16T19:55:20.935Z,98155.45
2018-10-16T19:57:50.428Z,98155.45
2018-10-16T20:00:21.188Z,98155.31
2018-10-16T20:02:51.936Z,98147.70
2018-10-16T20:05:21.421Z,98147.42
2018-10-16T20:07:52.055Z,98143.48
2018-10-16T20:10:22.840Z,98145.37
2018-10-16T20:12:53.585Z,98145.37
2018-10-16T20:15:24.321Z,98140.69
2018-10-16T20:17:55.112Z,98143.23
2018-10-16T20:20:25.931Z,98132.55
2018-10-16T20:22:55.381Z,98132.55
2018-10-16T20:25:26.223Z,98133.67
2018-10-16T20:27:56.952Z,98126.28
2018-10-16T20:30:26.380Z,98134.88
2018-10-16T20:32:57.163Z,98134.56
2018-10-16T20:35:27.990Z,98141.02
2018-10-16T20:37:58.885Z,98137.42
2018-10-16T20:40:29.887Z,98137.91
2018-10-16T20:43:01.022Z,98131.70
2018-10-16T20:45:30.414Z,98141.22
2018-10-16T20:48:01.089Z,98141.44
2018-10-16T20:50:31.979Z,98133.09
2018-10-16T20:53:01.457Z,98133.09
2018-10-16T20:55:32.119Z,98136.85
2018-10-16T20:58:03.059Z,98134.39
2018-10-16T21:00:33.973Z,98137.33
2018-10-16T21:03:03.458Z,98137.33
2018-10-16T21:05:34.175Z,98134.25
2018-10-16T21:08:04.925Z,98130.52
2018-10-16T21:10:35.934Z,98130.52
2018-10-16T21:13:05.459Z,98128.16
2018-10-16T21:15:36.061Z,98132.16
2018-10-16T21:18:06.952Z,98132.41
2018-10-16T21:20:36.399Z,98132.41
2018-10-16T21:23:07.356Z,98131.64
2018-10-16T21:25:38.052Z,98129.05
2018-10-16T21:28:08.880Z,98122.73
2018-10-16T21:30:39.800Z,98122.73
2018-10-16T21:33:10.496Z,98131.55
2018-10-16T21:35:41.368Z,98134.05
2018-10-16T21:38:12.088Z,98132.22
2018-10-16T21:40:42.967Z,98130.97
2018-10-16T21:43:12.435Z,98130.97
2018-10-16T21:45:43.301Z,98134.18
2018-10-16T21:49:36.481Z,98137.45
2018-10-16T21:52:07.574Z,98131.28
2018-10-16T21:54:38.331Z,98131.63
2018-10-16T21:57:09.080Z,98128.16
2018-10-16T21:59:40.003Z,98131.08
2018-10-16T22:02:27.856Z,98131.08
2018-10-16T22:04:58.602Z,98131.08
2018-10-16T22:07:29.292Z,98137.08
2018-10-16T22:10:00.023Z,98130.28
2018-10-16T22:12:30.864Z,98125.95
2018-10-16T22:15:01.588Z,98130.62
2018-10-16T22:17:32.317Z,98122.34
2018-10-16T22:20:03.126Z,98125.55
2018-10-16T22:22:33.903Z,98120.61
2018-10-16T22:25:04.898Z,98120.61
2018-10-16T22:27:35.855Z,98123.81
2018-10-16T22:30:06.540Z,98121.73
2018-10-16T22:32:37.352Z,98121.44
2018-10-16T22:35:09.444Z,98122.14
2018-10-16T22:37:40.283Z,98125.77
2018-10-16T22:40:11.850Z,98124.52
2018-10-16T22:42:42.581Z,98123.31
2018-10-16T22:45:13.355Z,98127.48
2018-10-16T22:47:44.083Z,98121.78
2018-10-16T22:50:15.000Z,98121.59
2018-10-16T22:52:45.590Z,98121.59
2018-10-16T22:55:16.431Z,98121.08
2018-10-16T22:57:47.092Z,98123.86
2018-10-16T23:00:18.971Z,98133.80
2018-10-16T23:02:49.261Z,98133.80
2018-10-16T23:05:20.071Z,98128.16
2018-10-16T23:08:09.584Z,98118.11
2018-10-16T23:10:59.107Z,98118.11
2018-10-16T23:13:29.954Z,98121.84
2018-10-16T23:15:59.401Z,98121.84
2018-10-16T23:22:04.320Z,98125.17
2018-10-16T23:24:35.364Z,98127.40
2018-10-16T23:27:06.301Z,98124.33
2018-10-16T23:29:37.087Z,98120.92
2018-10-16T23:32:08.071Z,98128.31
2018-10-16T23:34:38.875Z,98126.30
2018-10-16T23:37:09.639Z,98126.30
2018-10-16T23:39:40.386Z,98118.91
2018-10-16T23:42:11.056Z,98123.08
2018-10-16T23:44:41.859Z,98123.52
2018-10-16T23:47:12.561Z,98123.52
2018-10-16T23:49:43.249Z,98117.11
2018-10-16T23:52:14.069Z,98120.58
2018-10-16T23:54:44.889Z,98120.82
2018-10-16T23:57:15.550Z,98120.82
2018-10-16T23:59:46.355Z,98119.76
